Time;durP1;ratioP1;P1;durP2;ratioP2;P2;SDS_P1;SDS_P2;PMS_P1;PMS_P2;Temp;Humidity;BMP_temperature;BMP_pressure;BME280_temperature;BME280_humidity;BME280_pressure;Samples;Min_cycle;Max_cycle;Signal;HPM_P1;HPM_P2
2021/10/07 00:01:53;;;;;;;7.72;6.32;;;7.90;99.90;;;;;;5065717;28;20045;-64
2021/10/07 00:04:19;;;;;;;19.95;7.95;;;8.00;99.90;;;;;;5075345;28;20047;-64
2021/10/07 00:06:44;;;;;;;46.28;6.90;;;8.00;99.90;;;;;;5107043;28;20049;-64
2021/10/07 00:09:10;;;;;;;12.30;4.43;;;7.90;99.90;;;;;;5065907;28;20041;-64
2021/10/07 00:11:36;;;;;;;21.23;6.38;;;7.90;99.90;;;;;;5068531;28;20079;-64
2021/10/07 00:14:04;;;;;;;32.13;5.85;;;7.90;99.90;;;;;;5069107;28;20052;-64
2021/10/07 00:16:30;;;;;;;61.58;6.28;;;8.00;99.90;;;;;;5073265;28;20048;-64
2021/10/07 00:18:56;;;;;;;8.40;4.00;;;7.90;99.90;;;;;;5074365;28;20083;-64
2021/10/07 00:21:22;;;;;;;78.00;6.70;;;7.80;99.90;;;;;;5108454;28;20052;-64
2021/10/07 00:26:20;;;;;;;20.38;6.20;;;7.80;99.90;;;;;;5064642;28;20067;-64
2021/10/07 00:28:46;;;;;;;25.23;6.25;;;7.90;99.90;;;;;;5079913;28;20527;-64
2021/10/07 00:31:17;;;;;;;63.20;7.38;;;7.90;99.90;;;;;;5065168;28;20041;-64
2021/10/07 00:34:01;;;;;;;60.50;7.25;;;7.80;99.90;;;;;;5068723;28;20049;-64
2021/10/07 00:39:03;;;;;;;24.77;5.68;;;7.80;99.90;;;;;;5079751;28;20145;-64
2021/10/07 00:41:28;;;;;;;7.78;4.78;;;7.90;99.90;;;;;;5065647;28;20041;-64
2021/10/07 00:43:54;;;;;;;14.80;6.20;;;8.00;99.90;;;;;;5071123;28;20059;-64
2021/10/07 00:46:20;;;;;;;24.33;7.13;;;8.10;99.90;;;;;;5082714;28;20044;-64
2021/10/07 00:48:45;;;;;;;7.03;5.85;;;8.00;99.90;;;;;;5067447;28;20060;-64
2021/10/07 00:51:11;;;;;;;11.57;7.72;;;8.20;99.90;;;;;;5066309;28;20053;-64
2021/10/07 00:53:37;;;;;;;15.32;7.80;;;8.30;99.90;;;;;;5069468;28;20185;-64
2021/10/07 00:56:03;;;;;;;12.38;7.43;;;8.40;99.90;;;;;;5066739;28;20395;-65
2021/10/07 00:58:30;;;;;;;14.85;7.35;;;8.50;99.90;;;;;;5084154;28;20055;-64
2021/10/07 01:00:56;;;;;;;20.88;8.45;;;8.60;99.90;;;;;;5069562;28;20218;-64
2021/10/07 01:03:21;;;;;;;30.25;10.13;;;8.70;99.90;;;;;;5069252;28;20128;-64
2021/10/07 01:05:48;;;;;;;67.47;12.38;;;8.80;99.90;;;;;;5077260;28;20139;-64
2021/10/07 01:08:13;;;;;;;48.17;12.60;;;8.90;99.90;;;;;;5065784;28;20051;-65
2021/10/07 01:10:39;;;;;;;48.67;13.45;;;9.00;99.90;;;;;;5075086;28;20044;-64
2021/10/07 01:13:06;;;;;;;81.40;13.00;;;9.10;99.90;;;;;;5068157;28;20108;-64
2021/10/07 01:15:32;;;;;;;62.00;12.80;;;9.10;99.90;;;;;;5100987;28;20509;-64
2021/10/07 01:17:57;;;;;;;68.50;13.20;;;9.20;99.90;;;;;;5077767;28;20048;-64
2021/10/07 01:20:23;;;;;;;92.63;14.30;;;9.20;99.90;;;;;;5067361;28;20041;-64
2021/10/07 01:22:49;;;;;;;152.13;17.48;;;9.30;99.90;;;;;;5065221;28;20040;-64
2021/10/07 01:25:15;;;;;;;127.28;16.65;;;9.30;99.90;;;;;;5067604;28;20040;-64
2021/10/07 01:27:40;;;;;;;115.57;17.08;;;9.30;99.90;;;;;;5076245;28;20047;-64
2021/10/07 01:30:11;;;;;;;63.83;14.15;;;9.40;99.90;;;;;;5066126;28;20103;-64
2021/10/07 01:32:39;;;;;;;76.93;14.35;;;9.40;99.90;;;;;;5076053;28;20101;-64
2021/10/07 01:35:07;;;;;;;111.47;17.23;;;9.50;99.90;;;;;;5084887;28;20048;-64
2021/10/07 01:37:33;;;;;;;104.60;16.58;;;9.50;99.90;;;;;;5083125;28;20120;-64
2021/10/07 01:39:59;;;;;;;185.48;21.77;;;9.60;99.90;;;;;;5077121;28;20036;-64
2021/10/07 01:42:26;;;;;;;175.38;20.40;;;9.60;99.90;;;;;;5068484;28;20075;-64
2021/10/07 01:44:53;;;;;;;172.77;20.52;;;9.60;99.90;;;;;;5077401;28;20063;-64
2021/10/07 01:47:18;;;;;;;94.63;17.38;;;9.60;99.90;;;;;;5065893;28;20052;-64
2021/10/07 01:49:44;;;;;;;199.02;23.15;;;9.60;99.90;;;;;;5064983;28;20136;-64
2021/10/07 01:52:10;;;;;;;168.65;21.50;;;9.70;99.90;;;;;;5079398;28;20055;-64
2021/10/07 01:54:36;;;;;;;166.18;20.45;;;9.70;99.90;;;;;;5078822;28;20056;-64
2021/10/07 01:57:03;;;;;;;273.50;25.00;;;9.70;99.90;;;;;;5064263;28;20563;-64
2021/10/07 01:59:28;;;;;;;335.05;27.77;;;9.60;99.90;;;;;;5065928;28;20053;-64
2021/10/07 02:01:54;;;;;;;92.22;18.73;;;9.60;99.90;;;;;;5064942;28;20068;-64
2021/10/07 02:04:20;;;;;;;286.88;25.13;;;9.70;99.90;;;;;;5070581;28;20230;-64
2021/10/07 02:06:45;;;;;;;143.35;20.27;;;9.70;99.90;;;;;;5065640;28;20060;-64
2021/10/07 02:09:11;;;;;;;349.20;29.40;;;9.70;99.90;;;;;;5067103;28;20390;-64
2021/10/07 02:11:37;;;;;;;397.60;31.23;;;9.70;99.90;;;;;;5067516;28;20048;-64
2021/10/07 02:14:03;;;;;;;111.35;19.00;;;9.60;99.90;;;;;;5080025;28;20070;-64
2021/10/07 02:16:30;;;;;;;167.55;19.77;;;9.60;99.90;;;;;;5072821;28;20067;-64
2021/10/07 02:18:57;;;;;;;139.90;18.05;;;9.60;99.90;;;;;;5071445;28;20048;-64
2021/10/07 02:21:23;;;;;;;126.90;19.13;;;9.70;99.90;;;;;;5099126;28;20516;-64
2021/10/07 02:23:49;;;;;;;115.32;18.13;;;9.80;99.90;;;;;;5080616;28;20044;-64
2021/10/07 02:26:15;;;;;;;230.57;22.60;;;9.80;99.90;;;;;;5083176;28;20066;-64
2021/10/07 02:28:40;;;;;;;122.18;17.77;;;9.80;99.90;;;;;;5080007;28;20048;-64
2021/10/07 02:31:06;;;;;;;163.38;18.58;;;9.80;99.90;;;;;;5065383;28;20127;-64
2021/10/07 02:33:32;;;;;;;241.27;23.23;;;9.80;99.90;;;;;;5075531;28;20045;-64
2021/10/07 02:35:58;;;;;;;263.13;22.27;;;9.80;99.90;;;;;;5074663;28;20043;-64
2021/10/07 02:38:24;;;;;;;120.15;17.85;;;9.80;99.90;;;;;;5082798;28;20033;-64
2021/10/07 02:40:49;;;;;;;160.35;17.92;;;9.90;99.90;;;;;;5064779;28;20056;-64
2021/10/07 02:43:15;;;;;;;208.38;17.95;;;9.90;99.90;;;;;;5078860;28;20045;-64
2021/10/07 02:45:41;;;;;;;111.97;17.70;;;9.90;99.90;;;;;;5068446;28;20287;-64
2021/10/07 02:48:07;;;;;;;313.30;24.98;;;10.00;99.90;;;;;;5063847;28;20056;-64
2021/10/07 02:50:32;;;;;;;130.98;17.65;;;10.00;99.90;;;;;;5066207;28;20059;-64
2021/10/07 02:52:58;;;;;;;121.28;17.30;;;10.00;99.90;;;;;;5067027;28;20056;-64
2021/10/07 02:55:24;;;;;;;74.30;15.65;;;10.00;99.90;;;;;;5056723;28;20495;-64
2021/10/07 02:57:49;;;;;;;143.52;16.40;;;10.10;99.90;;;;;;5072811;28;20047;-64
2021/10/07 03:00:17;;;;;;;197.93;18.70;;;10.10;99.90;;;;;;5064586;28;20065;-64
2021/10/07 03:02:43;;;;;;;107.72;15.85;;;10.10;99.90;;;;;;5064749;28;20520;-64
2021/10/07 03:05:09;;;;;;;108.75;14.55;;;10.10;99.90;;;;;;5068891;28;20059;-64
2021/10/07 03:07:35;;;;;;;57.65;13.63;;;10.10;99.90;;;;;;5070162;28;20098;-64
2021/10/07 03:10:01;;;;;;;190.57;19.02;;;10.10;99.90;;;;;;5074634;28;20079;-64
2021/10/07 03:12:27;;;;;;;116.80;15.10;;;10.10;99.90;;;;;;5079765;28;20040;-64
2021/10/07 03:14:52;;;;;;;57.15;13.27;;;10.10;99.90;;;;;;5091679;28;20048;-64
2021/10/07 03:17:18;;;;;;;60.58;12.18;;;10.00;99.90;;;;;;5071710;28;20561;-64
2021/10/07 03:19:44;;;;;;;96.22;13.98;;;10.00;99.90;;;;;;5061085;28;20068;-64
2021/10/07 03:22:10;;;;;;;227.55;18.73;;;10.10;99.90;;;;;;5074571;28;20053;-64
2021/10/07 03:24:36;;;;;;;177.73;17.15;;;10.10;99.90;;;;;;5076764;28;20059;-64
2021/10/07 03:27:03;;;;;;;71.65;13.75;;;10.10;99.90;;;;;;5080658;28;20059;-64
2021/10/07 03:29:30;;;;;;;167.75;16.42;;;10.10;99.90;;;;;;5076834;28;20049;-64
2021/10/07 03:31:56;;;;;;;75.97;13.52;;;10.10;99.90;;;;;;5084445;28;20052;-64
2021/10/07 03:34:22;;;;;;;54.00;13.13;;;10.10;99.90;;;;;;5077645;28;20076;-64
2021/10/07 03:36:48;;;;;;;65.47;12.57;;;10.10;99.90;;;;;;5078614;28;20045;-64
2021/10/07 03:39:14;;;;;;;44.28;12.75;;;10.10;99.90;;;;;;5068340;28;20068;-64
2021/10/07 03:41:40;;;;;;;57.83;13.25;;;10.10;99.90;;;;;;5080301;28;20070;-64
2021/10/07 03:44:06;;;;;;;69.13;13.13;;;10.10;99.90;;;;;;5068775;28;20371;-64
2021/10/07 03:46:32;;;;;;;50.28;13.38;;;10.10;99.90;;;;;;5084835;28;20067;-64
2021/10/07 03:48:58;;;;;;;61.15;12.65;;;10.10;99.90;;;;;;5070879;28;20049;-64
2021/10/07 03:51:24;;;;;;;41.40;13.00;;;10.10;99.90;;;;;;5110588;28;20060;-64
2021/10/07 03:53:50;;;;;;;36.92;12.73;;;10.10;99.90;;;;;;5074733;28;20104;-64
2021/10/07 03:56:16;;;;;;;167.77;18.35;;;10.10;99.90;;;;;;5075849;28;20074;-64
2021/10/07 03:58:42;;;;;;;53.38;14.23;;;10.10;99.90;;;;;;5068373;28;20049;-64
2021/10/07 04:01:07;;;;;;;42.42;12.52;;;10.20;99.90;;;;;;5066289;28;20481;-64
2021/10/07 04:03:33;;;;;;;61.53;14.73;;;10.20;99.90;;;;;;5081462;28;20447;-64
2021/10/07 04:05:59;;;;;;;84.25;16.20;;;10.20;99.90;;;;;;5072283;28;20059;-64
2021/10/07 04:08:25;;;;;;;171.20;16.35;;;10.20;99.90;;;;;;5073859;28;20045;-64
2021/10/07 04:10:51;;;;;;;70.43;14.43;;;10.10;99.90;;;;;;5076447;28;20049;-64
2021/10/07 04:13:22;;;;;;;46.15;13.73;;;10.20;99.90;;;;;;5080657;28;20396;-64
2021/10/07 04:15:49;;;;;;;49.03;14.07;;;10.20;99.90;;;;;;5073980;28;20053;-64
2021/10/07 04:18:15;;;;;;;39.33;13.40;;;10.20;99.90;;;;;;5070409;28;20105;-64
2021/10/07 04:20:43;;;;;;;47.45;13.88;;;10.20;99.90;;;;;;5064750;28;20059;-64
2021/10/07 04:23:09;;;;;;;51.20;13.68;;;10.20;99.90;;;;;;5059038;28;20175;-63
2021/10/07 04:25:35;;;;;;;51.03;14.40;;;10.20;99.90;;;;;;5085108;28;20068;-63
2021/10/07 04:28:04;;;;;;;138.60;17.48;;;10.20;99.90;;;;;;5082856;28;20051;-63
2021/10/07 04:30:30;;;;;;;87.07;16.20;;;10.20;99.90;;;;;;5082596;28;20059;-64
2021/10/07 04:32:56;;;;;;;137.43;16.88;;;10.20;99.90;;;;;;5076722;28;20049;-64
2021/10/07 04:35:22;;;;;;;123.72;17.17;;;10.20;99.90;;;;;;5078556;28;20041;-64
2021/10/07 04:37:47;;;;;;;114.43;16.08;;;10.10;99.90;;;;;;5064099;28;20052;-63
2021/10/07 04:40:13;;;;;;;115.70;17.13;;;10.10;99.90;;;;;;5072610;28;20522;-63
2021/10/07 04:42:39;;;;;;;64.55;13.73;;;10.10;99.90;;;;;;5072954;28;20059;-63
2021/10/07 04:45:05;;;;;;;53.25;14.93;;;10.10;99.90;;;;;;5082493;28;20056;-63
2021/10/07 04:47:31;;;;;;;59.30;14.95;;;10.10;99.90;;;;;;5079149;28;20051;-63
2021/10/07 04:49:56;;;;;;;59.80;13.85;;;10.20;99.90;;;;;;5078096;28;20134;-63
2021/10/07 04:52:23;;;;;;;180.48;18.50;;;10.20;99.90;;;;;;5079711;28;20041;-62
2021/10/07 04:54:48;;;;;;;144.13;18.00;;;10.20;99.90;;;;;;5073650;28;20043;-63
2021/10/07 04:57:14;;;;;;;172.27;20.95;;;10.20;99.90;;;;;;5063938;28;20063;-63
2021/10/07 04:59:40;;;;;;;83.32;15.07;;;10.10;99.90;;;;;;5073629;28;20074;-64
2021/10/07 05:02:06;;;;;;;145.50;18.65;;;10.10;99.90;;;;;;5083019;28;20052;-63
2021/10/07 05:04:32;;;;;;;75.07;15.85;;;10.20;99.90;;;;;;5070671;27;20052;-63
2021/10/07 05:06:57;;;;;;;203.30;20.58;;;10.10;99.90;;;;;;5101624;28;20040;-66
2021/10/07 05:09:23;;;;;;;251.25;22.15;;;10.20;99.90;;;;;;5067118;27;20092;-65
2021/10/07 05:11:49;;;;;;;103.18;17.98;;;10.10;99.90;;;;;;5096072;28;20044;-65
2021/10/07 05:14:14;;;;;;;140.18;18.27;;;10.10;99.90;;;;;;5066853;27;20079;-65
2021/10/07 05:16:40;;;;;;;103.30;15.88;;;10.10;99.90;;;;;;5082348;28;20087;-65
2021/10/07 05:19:06;;;;;;;169.80;18.88;;;10.10;99.90;;;;;;5057966;28;20041;-63
2021/10/07 05:21:31;;;;;;;125.50;16.45;;;10.10;99.90;;;;;;5088987;27;20456;-65
2021/10/07 05:23:57;;;;;;;142.25;16.60;;;10.10;99.90;;;;;;5050000;28;20360;-65
2021/10/07 05:26:23;;;;;;;185.32;17.58;;;10.10;99.90;;;;;;5091396;27;20071;-66
2021/10/07 05:28:49;;;;;;;69.45;14.85;;;10.10;99.90;;;;;;5073702;28;20051;-65
2021/10/07 05:31:14;;;;;;;75.93;14.75;;;10.20;99.90;;;;;;5089306;27;20047;-66
2021/10/07 05:33:40;;;;;;;188.85;18.00;;;10.20;99.90;;;;;;5069682;28;20058;-66
2021/10/07 05:36:06;;;;;;;135.40;17.33;;;10.20;99.90;;;;;;5070772;28;20084;-64
2021/10/07 05:38:32;;;;;;;68.15;15.38;;;10.20;99.90;;;;;;5056455;28;20048;-64
2021/10/07 05:41:00;;;;;;;54.72;13.25;;;10.20;99.90;;;;;;5086311;27;20055;-64
2021/10/07 05:43:26;;;;;;;135.18;17.23;;;10.30;99.90;;;;;;5072484;28;20066;-63
2021/10/07 05:45:52;;;;;;;45.67;14.43;;;10.30;99.90;;;;;;5074685;28;20075;-63
2021/10/07 05:48:17;;;;;;;97.05;15.18;;;10.30;99.90;;;;;;5077213;28;20074;-62
2021/10/07 05:50:43;;;;;;;164.80;19.02;;;10.30;99.90;;;;;;5075588;28;20056;-63
2021/10/07 05:53:09;;;;;;;67.57;14.35;;;10.30;99.90;;;;;;5073191;28;20052;-62
2021/10/07 05:55:35;;;;;;;59.70;13.68;;;10.30;99.90;;;;;;5079818;27;20174;-62
2021/10/07 05:58:01;;;;;;;81.13;15.07;;;10.30;99.90;;;;;;5082854;28;20051;-63
2021/10/07 06:00:27;;;;;;;184.05;18.00;;;10.30;99.90;;;;;;5072652;28;20516;-62
2021/10/07 06:02:52;;;;;;;94.13;14.05;;;10.20;99.90;;;;;;5077377;28;20051;-62
2021/10/07 06:05:18;;;;;;;118.07;13.85;;;10.20;99.90;;;;;;5065704;28;20048;-62
2021/10/07 06:07:44;;;;;;;121.22;13.77;;;10.20;99.90;;;;;;5090242;28;20436;-62
2021/10/07 06:10:11;;;;;;;243.27;18.65;;;10.30;99.90;;;;;;5077021;27;20051;-63
2021/10/07 06:12:37;;;;;;;84.35;13.52;;;10.30;99.90;;;;;;5084241;28;20048;-63
2021/10/07 06:15:03;;;;;;;101.65;14.43;;;10.20;99.90;;;;;;5070274;28;20201;-63
2021/10/07 06:17:29;;;;;;;152.30;15.52;;;10.30;99.90;;;;;;5081620;28;20048;-63
2021/10/07 06:20:05;;;;;;;89.95;12.93;;;10.30;99.90;;;;;;5070146;27;20055;-63
2021/10/07 06:22:30;;;;;;;84.20;13.48;;;10.30;99.90;;;;;;5074286;28;20563;-63
2021/10/07 06:24:56;;;;;;;78.25;12.05;;;10.30;99.90;;;;;;5068134;28;20107;-62
2021/10/07 06:27:22;;;;;;;105.85;13.82;;;10.30;99.90;;;;;;5096121;28;20081;-62
2021/10/07 06:29:50;;;;;;;100.20;12.63;;;10.30;99.90;;;;;;5066312;27;20249;-65
2021/10/07 06:32:17;;;;;;;80.50;13.65;;;10.30;99.90;;;;;;5101623;28;20036;-62
2021/10/07 06:34:42;;;;;;;215.93;18.00;;;10.30;99.90;;;;;;5062809;27;20040;-63
2021/10/07 06:37:08;;;;;;;135.48;13.95;;;10.30;99.90;;;;;;5105056;28;20048;-63
2021/10/07 06:39:34;;;;;;;51.70;11.35;;;10.30;99.90;;;;;;5067160;28;20083;-62
2021/10/07 06:42:00;;;;;;;211.75;16.80;;;10.30;99.90;;;;;;5091909;28;20064;-63
2021/10/07 06:44:25;;;;;;;206.45;15.80;;;10.20;99.90;;;;;;5074066;28;20048;-62
2021/10/07 06:46:51;;;;;;;105.97;14.70;;;10.20;99.90;;;;;;5085403;27;20067;-62
2021/10/07 06:49:17;;;;;;;73.63;13.60;;;10.30;99.90;;;;;;5071685;28;20056;-63
2021/10/07 06:51:43;;;;;;;90.03;13.55;;;10.30;99.90;;;;;;5077943;28;20080;-63
2021/10/07 06:54:08;;;;;;;169.85;15.88;;;10.30;99.90;;;;;;5054745;28;20037;-63
2021/10/07 06:56:34;;;;;;;151.80;15.00;;;10.30;99.90;;;;;;5076145;28;20044;-63
2021/10/07 06:59:00;;;;;;;92.28;13.90;;;10.30;99.90;;;;;;5062129;28;20049;-63
2021/10/07 07:01:28;;;;;;;121.40;15.95;;;10.40;99.90;;;;;;5065304;28;20205;-63
2021/10/07 07:03:55;;;;;;;78.35;13.52;;;10.40;99.90;;;;;;5064560;28;20067;-63
2021/10/07 07:06:24;;;;;;;95.45;16.15;;;10.40;99.90;;;;;;5068494;28;20052;-64
2021/10/07 07:08:50;;;;;;;62.97;13.52;;;10.40;99.90;;;;;;5074329;28;20048;-63
2021/10/07 07:11:16;;;;;;;70.63;13.32;;;10.50;99.90;;;;;;5078063;28;20086;-64
2021/10/07 07:13:44;;;;;;;102.13;15.85;;;10.50;99.90;;;;;;5076531;28;20127;-65
2021/10/07 07:16:11;;;;;;;168.88;17.65;;;10.50;99.90;;;;;;5077908;28;20891;-64
2021/10/07 07:18:37;;;;;;;100.60;15.10;;;10.50;99.90;;;;;;5077223;28;20084;-64
2021/10/07 07:21:03;;;;;;;56.05;13.43;;;10.50;99.90;;;;;;5071716;28;20059;-64
2021/10/07 07:23:29;;;;;;;59.42;18.85;;;10.60;99.90;;;;;;5055796;28;20289;-64
2021/10/07 07:25:55;;;;;;;49.22;18.10;;;10.60;99.90;;;;;;5081196;28;20052;-64
2021/10/07 07:28:21;;;;;;;60.00;15.00;;;10.60;99.90;;;;;;5079232;28;20040;-64
2021/10/07 07:30:49;;;;;;;43.53;13.27;;;10.60;99.90;;;;;;5079046;28;20060;-64
2021/10/07 07:33:18;;;;;;;94.30;17.15;;;10.60;99.90;;;;;;5082322;28;20048;-64
2021/10/07 07:35:44;;;;;;;87.10;15.48;;;10.70;99.90;;;;;;5066774;28;20082;-64
2021/10/07 07:38:09;;;;;;;61.60;14.43;;;10.60;99.90;;;;;;5087857;28;20037;-64
2021/10/07 07:40:35;;;;;;;56.13;14.50;;;10.70;99.90;;;;;;5076282;28;20054;-64
2021/10/07 07:43:01;;;;;;;71.70;16.08;;;10.60;99.90;;;;;;5096673;28;20063;-64
2021/10/07 07:45:27;;;;;;;97.25;16.80;;;10.70;99.90;;;;;;5074154;28;20059;-64
2021/10/07 07:47:53;;;;;;;59.88;15.52;;;10.60;99.90;;;;;;5064641;28;20140;-64
2021/10/07 07:50:21;;;;;;;111.05;17.00;;;10.60;99.90;;;;;;5072498;27;20146;-64
2021/10/07 07:52:48;;;;;;;118.65;16.67;;;10.60;99.90;;;;;;5089978;28;20113;-64
2021/10/07 07:55:14;;;;;;;51.40;14.23;;;10.70;99.90;;;;;;5088220;28;20040;-64
2021/10/07 07:57:40;;;;;;;48.70;14.18;;;10.70;99.90;;;;;;5104588;28;20036;-64
2021/10/07 08:00:07;;;;;;;37.67;13.38;;;10.70;99.90;;;;;;5067713;27;20241;-64
2021/10/07 08:02:32;;;;;;;51.42;14.43;;;10.70;99.90;;;;;;5103064;28;20086;-64
2021/10/07 08:04:58;;;;;;;48.05;12.68;;;10.70;99.90;;;;;;5071247;28;20286;-65
2021/10/07 08:07:24;;;;;;;37.53;12.55;;;10.80;99.90;;;;;;5097282;27;20072;-64
2021/10/07 08:09:50;;;;;;;42.30;12.23;;;10.80;99.90;;;;;;5074427;28;20052;-64
2021/10/07 08:12:16;;;;;;;33.67;11.73;;;10.90;99.90;;;;;;5101392;27;20052;-64
2021/10/07 08:14:47;;;;;;;42.70;12.40;;;10.90;99.90;;;;;;5078294;28;20049;-64
2021/10/07 08:17:14;;;;;;;45.00;12.15;;;10.90;99.90;;;;;;5080912;28;20135;-64
2021/10/07 08:19:41;;;;;;;34.92;12.02;;;10.90;99.90;;;;;;5076350;28;20083;-64
2021/10/07 08:22:07;;;;;;;37.13;11.98;;;10.90;99.90;;;;;;5098914;27;20181;-64
2021/10/07 08:24:33;;;;;;;29.63;11.30;;;10.90;99.90;;;;;;5062375;28;20044;-64
2021/10/07 08:26:59;;;;;;;25.90;10.80;;;10.90;99.90;;;;;;5085102;28;20052;-64
2021/10/07 08:29:25;;;;;;;26.08;10.75;;;10.90;99.90;;;;;;5064048;28;20087;-64
2021/10/07 08:31:51;;;;;;;25.33;11.73;;;10.90;99.90;;;;;;5093766;28;20070;-64
2021/10/07 08:34:17;;;;;;;33.63;12.65;;;10.90;99.90;;;;;;5074437;28;20072;-64
2021/10/07 08:36:43;;;;;;;26.38;11.25;;;10.90;99.90;;;;;;5090279;27;20200;-64
2021/10/07 08:39:14;;;;;;;30.45;11.15;;;11.00;99.90;;;;;;5060063;28;20047;-64
2021/10/07 08:41:41;;;;;;;27.65;11.70;;;11.00;99.90;;;;;;5076057;28;21195;-64
2021/10/07 08:44:08;;;;;;;29.95;12.25;;;11.00;99.90;;;;;;5081768;28;20048;-65
2021/10/07 08:46:33;;;;;;;26.13;12.52;;;11.00;99.90;;;;;;5062714;28;20129;-66
2021/10/07 08:49:00;;;;;;;29.85;10.95;;;11.10;99.90;;;;;;5084291;28;20263;-64
2021/10/07 08:51:27;;;;;;;21.30;10.95;;;11.10;99.90;;;;;;5071620;28;20052;-64
2021/10/07 08:53:52;;;;;;;26.58;12.10;;;11.00;99.90;;;;;;5078653;28;20032;-64
2021/10/07 08:56:20;;;;;;;22.48;11.38;;;11.10;99.90;;;;;;5076346;28;20068;-64
2021/10/07 08:58:46;;;;;;;28.90;11.75;;;11.10;99.90;;;;;;5080596;28;20048;-64
2021/10/07 09:01:34;;;;;;;28.08;11.93;;;11.10;99.90;;;;;;5060638;28;20105;-64
2021/10/07 09:04:01;;;;;;;25.23;11.77;;;11.20;99.90;;;;;;5074107;28;20052;-64
2021/10/07 09:06:27;;;;;;;37.60;12.95;;;11.20;99.90;;;;;;5077869;28;20055;-65
2021/10/07 09:08:53;;;;;;;27.52;12.32;;;11.20;99.90;;;;;;5080612;28;20052;-64
2021/10/07 09:11:29;;;;;;;20.15;12.82;;;11.20;99.90;;;;;;5071133;28;20231;-64
2021/10/07 09:14:04;;;;;;;25.75;12.85;;;11.20;99.90;;;;;;5061145;28;20063;-65
2021/10/07 09:16:47;;;;;;;20.42;10.93;;;11.30;99.90;;;;;;5076160;28;20052;-64
2021/10/07 09:19:21;;;;;;;22.25;11.88;;;11.30;99.90;;;;;;5065257;28;20068;-64
2021/10/07 09:21:49;;;;;;;21.38;11.60;;;11.40;99.90;;;;;;5073883;28;20118;-64
2021/10/07 09:24:30;;;;;;;20.55;11.63;;;11.40;99.90;;;;;;5053576;28;20048;-65
2021/10/07 09:27:03;;;;;;;23.58;11.75;;;11.50;99.90;;;;;;5088663;27;20569;-64
2021/10/07 09:29:51;;;;;;;20.25;11.93;;;11.50;99.90;;;;;;5072817;28;20093;-64
2021/10/07 09:32:49;;;;;;;25.60;13.00;;;11.50;99.90;;;;;;5083677;28;20048;-64
2021/10/07 09:35:18;;;;;;;24.25;13.88;;;11.50;99.90;;;;;;5070372;28;20046;-64
2021/10/07 09:37:44;;;;;;;21.45;12.85;;;11.50;99.90;;;;;;5064162;28;20080;-64
2021/10/07 09:40:13;;;;;;;23.02;12.05;;;11.60;99.90;;;;;;5073449;28;20104;-64
2021/10/07 09:42:42;;;;;;;20.47;12.50;;;11.60;99.90;;;;;;5075480;28;20109;-64
2021/10/07 09:45:18;;;;;;;22.73;12.95;;;11.60;99.90;;;;;;5129663;27;1286043;-62
2021/10/07 09:47:53;;;;;;;22.67;12.23;;;11.60;99.90;;;;;;5086024;27;20037;-63
2021/10/07 09:50:47;;;;;;;23.80;12.75;;;11.70;99.90;;;;;;5073634;28;20090;-63
2021/10/07 09:53:16;;;;;;;21.77;13.85;;;11.70;99.90;;;;;;5056658;28;20052;-63
2021/10/07 09:55:44;;;;;;;32.17;15.00;;;11.60;99.90;;;;;;5069301;28;20120;-63
2021/10/07 09:58:13;;;;;;;21.98;14.52;;;11.70;99.90;;;;;;5112918;28;20044;-63
2021/10/07 10:00:42;;;;;;;23.30;13.27;;;11.70;99.90;;;;;;5069187;28;20063;-63
2021/10/07 10:03:09;;;;;;;24.88;14.15;;;11.70;99.90;;;;;;5106754;28;20062;-63
2021/10/07 10:05:37;;;;;;;22.90;13.93;;;11.70;99.90;;;;;;5091340;28;20055;-63
2021/10/07 10:08:08;;;;;;;25.98;15.30;;;11.80;99.90;;;;;;5094295;28;20040;-63
2021/10/07 10:10:35;;;;;;;27.45;16.10;;;11.80;99.90;;;;;;5066065;28;20068;-63
2021/10/07 10:13:01;;;;;;;30.88;16.55;;;11.80;99.90;;;;;;5094485;28;20040;-63
2021/10/07 10:15:27;;;;;;;25.10;15.35;;;11.80;99.90;;;;;;5065037;28;20187;-66
2021/10/07 10:17:53;;;;;;;27.40;15.90;;;11.90;99.90;;;;;;5090668;28;20162;-63
2021/10/07 10:20:24;;;;;;;28.45;17.63;;;12.00;99.90;;;;;;5076757;28;20063;-63
2021/10/07 10:23:02;;;;;;;27.98;16.67;;;12.00;99.90;;;;;;5082261;28;20058;-63
2021/10/07 10:25:30;;;;;;;26.80;16.45;;;12.00;99.90;;;;;;5084272;28;20048;-63
2021/10/07 10:28:04;;;;;;;27.02;16.63;;;12.10;99.90;;;;;;5130681;27;20055;-63
2021/10/07 10:30:41;;;;;;;28.23;16.70;;;12.10;99.90;;;;;;5095026;28;20077;-64
2021/10/07 10:33:25;;;;;;;25.70;16.40;;;12.20;99.90;;;;;;5103937;28;20109;-63
2021/10/07 10:35:50;;;;;;;26.08;16.48;;;12.20;99.90;;;;;;5100728;28;20142;-62
2021/10/07 10:38:16;;;;;;;27.45;16.73;;;12.30;99.90;;;;;;5115825;28;20080;-63
2021/10/07 10:40:41;;;;;;;25.90;17.77;;;12.30;99.90;;;;;;5080409;28;20052;-63
2021/10/07 10:43:16;;;;;;;24.98;16.95;;;12.30;99.90;;;;;;5102764;28;20040;-63
2021/10/07 10:45:51;;;;;;;26.90;16.92;;;12.30;99.90;;;;;;5082220;28;20125;-63
2021/10/07 10:48:41;;;;;;;26.48;16.92;;;12.40;99.90;;;;;;5085003;28;20448;-63
2021/10/07 10:51:15;;;;;;;25.63;17.77;;;12.50;99.90;;;;;;5084576;28;20078;-63
2021/10/07 10:54:07;;;;;;;30.80;18.70;;;12.30;99.90;;;;;;5090357;28;20048;-63
2021/10/07 10:56:42;;;;;;;28.15;18.85;;;12.30;99.90;;;;;;5050631;28;20049;-63
2021/10/07 10:59:18;;;;;;;26.50;18.05;;;12.40;99.90;;;;;;5081729;28;20045;-63
2021/10/07 11:01:44;;;;;;;27.95;19.15;;;12.40;99.90;;;;;;5088258;27;20047;-63
2021/10/07 11:04:10;;;;;;;28.00;18.55;;;12.30;99.90;;;;;;5102481;28;20074;-63
2021/10/07 11:07:13;;;;;;;28.63;19.50;;;12.30;99.90;;;;;;5091460;28;20229;-63
2021/10/07 11:10:00;;;;;;;26.13;18.10;;;12.40;99.90;;;;;;5099336;28;20055;-63
2021/10/07 11:12:42;;;;;;;28.10;19.20;;;12.50;99.90;;;;;;5081075;28;20040;-63
2021/10/07 11:15:09;;;;;;;28.77;18.77;;;12.50;99.90;;;;;;5078779;28;20052;-63
2021/10/07 11:17:36;;;;;;;27.73;18.35;;;12.50;99.90;;;;;;5086162;28;20076;-63
2021/10/07 11:20:02;;;;;;;26.17;18.45;;;12.60;99.90;;;;;;5094412;28;20418;-63
2021/10/07 11:22:28;;;;;;;26.48;18.25;;;12.70;99.90;;;;;;5102288;27;20133;-63
2021/10/07 11:24:55;;;;;;;26.48;18.30;;;12.70;99.90;;;;;;5080954;28;20044;-63
2021/10/07 11:27:38;;;;;;;27.77;18.30;;;12.80;99.90;;;;;;5100282;27;20238;-62
2021/10/07 11:30:09;;;;;;;25.30;18.00;;;12.80;99.90;;;;;;5092796;28;20051;-62
2021/10/07 11:32:38;;;;;;;27.42;18.98;;;12.90;99.90;;;;;;5103743;27;20064;-62
2021/10/07 11:35:15;;;;;;;24.73;17.88;;;12.80;99.90;;;;;;5097760;28;20054;-63
2021/10/07 11:37:45;;;;;;;27.25;18.95;;;12.90;99.90;;;;;;5094937;28;20382;-63
2021/10/07 11:40:23;;;;;;;26.55;18.02;;;12.90;99.90;;;;;;5097174;28;20679;-62
2021/10/07 11:42:49;;;;;;;23.38;16.60;;;13.00;99.90;;;;;;5101312;28;20146;-63
2021/10/07 11:45:23;;;;;;;27.48;19.95;;;13.10;99.90;;;;;;5097310;28;20076;-63
2021/10/07 11:47:50;;;;;;;27.35;18.23;;;13.00;99.90;;;;;;5104775;28;20427;-63
2021/10/07 11:50:17;;;;;;;30.55;19.25;;;13.00;99.90;;;;;;5097070;28;20036;-63
2021/10/07 11:52:43;;;;;;;31.38;20.27;;;13.00;99.90;;;;;;5081744;28;20059;-63
2021/10/07 11:55:09;;;;;;;31.98;19.95;;;13.00;99.90;;;;;;5095218;28;20139;-63
2021/10/07 11:57:35;;;;;;;33.30;21.83;;;13.10;99.90;;;;;;5101194;28;20530;-63
2021/10/07 12:00:01;;;;;;;33.13;20.95;;;13.10;99.90;;;;;;5094444;28;20087;-63
2021/10/07 12:02:26;;;;;;;32.60;20.85;;;13.00;99.90;;;;;;5097529;28;20285;-63
2021/10/07 12:05:16;;;;;;;29.05;19.13;;;13.00;99.90;;;;;;5098904;28;20047;-63
2021/10/07 12:07:42;;;;;;;31.58;19.23;;;13.10;99.90;;;;;;5099258;28;20092;-62
2021/10/07 12:10:08;;;;;;;28.25;19.50;;;13.20;99.90;;;;;;5094718;28;20040;-63
2021/10/07 12:12:33;;;;;;;26.13;17.73;;;13.20;99.90;;;;;;5083053;28;20051;-63
2021/10/07 12:15:00;;;;;;;27.77;19.08;;;13.30;99.90;;;;;;5100083;28;20100;-63
2021/10/07 12:17:25;;;;;;;25.60;17.10;;;13.40;99.90;;;;;;5093792;28;20062;-63
2021/10/07 12:19:51;;;;;;;28.60;18.75;;;13.30;99.90;;;;;;5099105;28;20124;-63
2021/10/07 12:22:27;;;;;;;27.50;20.02;;;13.30;99.90;;;;;;5097952;27;20125;-63
2021/10/07 12:25:02;;;;;;;26.05;18.20;;;13.30;99.90;;;;;;5077932;28;20048;-63
2021/10/07 12:27:32;;;;;;;26.48;18.23;;;13.40;99.90;;;;;;5082872;28;20051;-62
2021/10/07 12:30:05;;;;;;;;;;;13.50;99.90;;;;;;5093670;28;20356;-63
2021/10/07 12:32:31;;;;;;;26.05;18.35;;;13.50;99.90;;;;;;5098146;28;19924;-63
2021/10/07 12:34:57;;;;;;;23.88;16.75;;;13.70;99.90;;;;;;5101422;28;20040;-63
2021/10/07 12:37:28;;;;;;;29.00;18.17;;;13.80;99.90;;;;;;5087106;28;20071;-63